Terminal Aerodrome Forecast
Issued by NWS

Current Version | Previous Version | Graphics & Text | Print | Product List | Glossary On
Versions: 1 2 3 4 5 6 7 8 9 10 11 12 13 14 15
230
FTUS41 KILN 260520
TAFLUK
TAF
KLUK 260520Z 2606/2706 VRB03KT P6SM FEW250
     FM261100 20004KT P6SM VCSH SCT050 BKN100
     FM261700 21010KT P6SM VCTS BKN035CB OVC090
      TEMPO 2618/2622 3SM -TSRA BKN025CB
     FM262300 25005KT P6SM VCTS BKN040CB
     FM270200 00000KT P6SM SCT050 BKN200=

USA.gov is the U.S. government's official web portal to all federal, state and local government web resources and services.